createdAt,value
2018-05-26T00:00:55.116Z,19.60
2018-05-26T00:03:22.532Z,19.60
2018-05-26T00:05:50.698Z,19.40
2018-05-26T00:08:18.119Z,19.40
2018-05-26T00:10:45.523Z,19.40
2018-05-26T00:13:12.936Z,19.40
2018-05-26T00:15:40.402Z,19.40
2018-05-26T00:18:07.800Z,19.40
2018-05-26T00:20:35.239Z,19.30
2018-05-26T00:23:02.645Z,19.20
2018-05-26T00:25:30.088Z,19.10
2018-05-26T00:27:57.543Z,19.20
2018-05-26T00:30:24.944Z,19.10
2018-05-26T00:32:52.365Z,19.00
2018-05-26T00:35:20.549Z,18.80
2018-05-26T00:37:48.735Z,18.80
2018-05-26T00:40:16.176Z,18.80
2018-05-26T00:42:43.586Z,18.70
2018-05-26T00:45:11.056Z,18.60
2018-05-26T00:47:38.517Z,18.60
2018-05-26T00:50:05.920Z,18.60
2018-05-26T00:52:33.356Z,18.60
2018-05-26T00:55:00.760Z,18.50
2018-05-26T00:57:28.173Z,18.40
2018-05-26T00:59:56.384Z,18.30
2018-05-26T01:02:24.545Z,18.30
2018-05-26T01:04:52.751Z,18.30
2018-05-26T01:07:20.230Z,18.30
2018-05-26T01:09:47.645Z,18.30
2018-05-26T01:12:15.062Z,18.30
2018-05-26T01:14:42.457Z,18.20
2018-05-26T01:17:09.876Z,18.20
2018-05-26T01:19:38.058Z,18.10
2018-05-26T01:22:06.256Z,18.10
2018-05-26T01:24:33.838Z,18.10
2018-05-26T01:27:01.307Z,18.10
2018-05-26T01:29:28.732Z,18.10
2018-05-26T01:31:56.900Z,18.00
2018-05-26T01:34:24.314Z,17.90
2018-05-26T01:36:52.484Z,17.80
2018-05-26T01:39:20.659Z,17.80
2018-05-26T01:41:48.069Z,17.80
2018-05-26T01:44:15.475Z,17.90
2018-05-26T01:46:42.883Z,17.90
2018-05-26T01:49:11.067Z,17.80
2018-05-26T01:51:39.275Z,17.80
2018-05-26T01:54:07.424Z,17.90
2018-05-26T01:56:35.613Z,17.90
2018-05-26T01:59:03.112Z,17.90
2018-05-26T02:01:30.517Z,18.00
2018-05-26T02:03:57.952Z,18.00
2018-05-26T02:06:26.107Z,17.90
2018-05-26T02:08:54.314Z,17.90
2018-05-26T02:11:21.720Z,17.90
2018-05-26T02:13:49.140Z,17.90
2018-05-26T02:16:16.599Z,17.80
2018-05-26T02:18:44.784Z,17.70
2018-05-26T02:21:13.000Z,17.70
2018-05-26T02:23:40.460Z,17.70
2018-05-26T02:26:07.868Z,17.70
2018-05-26T02:28:35.282Z,17.70
2018-05-26T02:31:03.452Z,17.50
2018-05-26T02:33:30.958Z,17.50
2018-05-26T02:35:58.361Z,17.40
2018-05-26T02:38:25.764Z,17.30
2018-05-26T02:40:53.940Z,17.20
2018-05-26T02:43:21.361Z,17.10
2018-05-26T02:45:48.810Z,17.20
2018-05-26T02:48:16.241Z,17.30
2018-05-26T02:50:43.640Z,17.30
2018-05-26T02:53:11.816Z,17.40
2018-05-26T02:55:39.993Z,17.40
2018-05-26T02:58:07.496Z,17.30
2018-05-26T03:00:34.956Z,17.30
2018-05-26T03:03:02.429Z,17.30
2018-05-26T03:05:36.714Z,17.30
2018-05-26T03:08:09.908Z,17.30
2018-05-26T03:10:43.012Z,17.20
2018-05-26T03:13:16.134Z,17.10
2018-05-26T03:15:54.196Z,17.20
2018-05-26T03:18:21.615Z,17.20
2018-05-26T03:20:49.032Z,17.10
2018-05-26T03:23:16.450Z,17.10
2018-05-26T03:25:43.952Z,17.10
2018-05-26T03:28:11.368Z,17.10
2018-05-26T03:30:38.801Z,17.00
2018-05-26T03:33:06.260Z,16.90
2018-05-26T03:35:33.669Z,16.90
2018-05-26T03:38:01.209Z,16.90
2018-05-26T03:40:28.633Z,16.80
2018-05-26T03:42:56.853Z,16.70
2018-05-26T03:45:24.264Z,16.70
2018-05-26T03:47:51.672Z,16.70
2018-05-26T03:50:19.179Z,16.60
2018-05-26T03:52:46.607Z,16.50
2018-05-26T03:55:35.592Z,16.50
2018-05-26T03:58:15.592Z,16.30
2018-05-26T04:00:43.001Z,16.30
2018-05-26T04:03:10.500Z,16.20
2018-05-26T04:05:37.968Z,16.40
2018-05-26T04:08:05.371Z,16.40
2018-05-26T04:10:32.780Z,16.40
2018-05-26T04:13:01.876Z,16.50
2018-05-26T04:15:29.389Z,16.50
2018-05-26T04:17:56.806Z,16.60
2018-05-26T04:20:24.211Z,16.60
2018-05-26T04:22:52.386Z,16.70
2018-05-26T04:25:20.592Z,16.70
2018-05-26T04:27:48.802Z,16.70
2018-05-26T04:30:16.238Z,16.70
2018-05-26T04:32:44.445Z,16.70
2018-05-26T04:35:12.730Z,16.70
2018-05-26T04:37:40.892Z,16.70
2018-05-26T04:40:09.085Z,16.80
2018-05-26T04:42:37.244Z,16.90
2018-05-26T04:45:04.662Z,16.90
2018-05-26T04:47:32.892Z,17.00
2018-05-26T04:50:00.301Z,16.90
2018-05-26T04:52:27.705Z,16.90
2018-05-26T04:54:55.115Z,16.90
2018-05-26T04:57:23.284Z,16.80
2018-05-26T04:59:50.795Z,16.80
2018-05-26T05:02:18.275Z,16.90
2018-05-26T05:04:45.686Z,16.80
2018-05-26T05:07:13.209Z,16.80
2018-05-26T05:09:40.621Z,16.60
2018-05-26T05:12:08.041Z,16.50
2018-05-26T05:14:35.455Z,16.50
2018-05-26T05:17:02.856Z,16.50
2018-05-26T05:19:31.068Z,16.40
2018-05-26T05:21:58.478Z,16.40
2018-05-26T05:24:25.894Z,16.50
2018-05-26T05:26:53.481Z,16.40
2018-05-26T05:29:20.945Z,16.40
2018-05-26T05:31:48.408Z,16.50
2018-05-26T05:34:15.819Z,16.50
2018-05-26T05:36:43.239Z,16.50
2018-05-26T05:39:10.650Z,16.60
2018-05-26T05:41:38.081Z,16.70
2018-05-26T05:44:05.548Z,16.70
2018-05-26T05:46:34.045Z,16.80
2018-05-26T05:49:01.459Z,16.80
2018-05-26T05:51:28.880Z,16.80
2018-05-26T05:53:57.063Z,17.00
2018-05-26T05:56:24.570Z,16.90
2018-05-26T05:58:51.969Z,17.00
2018-05-26T06:01:19.477Z,17.10
2018-05-26T06:03:46.962Z,17.10
2018-05-26T06:06:14.380Z,17.20
2018-05-26T06:08:41.782Z,17.20
2018-05-26T06:11:09.244Z,17.20
2018-05-26T06:13:36.711Z,17.30
2018-05-26T06:16:04.184Z,17.40
2018-05-26T06:18:31.593Z,17.50
2018-05-26T06:20:59.014Z,17.60
2018-05-26T06:23:27.183Z,17.90
2018-05-26T06:25:55.356Z,17.80
2018-05-26T06:28:22.876Z,17.80
2018-05-26T06:30:50.276Z,17.80
2018-05-26T06:33:17.706Z,17.90
2018-05-26T06:35:45.161Z,18.00
2018-05-26T06:38:12.643Z,18.00
2018-05-26T06:40:40.058Z,18.10
2018-05-26T06:43:07.473Z,18.20
2018-05-26T06:45:34.941Z,18.40
2018-05-26T06:48:02.404Z,18.50
2018-05-26T06:50:29.879Z,18.60
2018-05-26T06:52:57.288Z,18.70
2018-05-26T06:55:24.696Z,18.80
2018-05-26T06:57:52.872Z,18.80
2018-05-26T07:00:21.107Z,18.90
2018-05-26T07:02:48.480Z,18.90
2018-05-26T07:05:15.901Z,19.10
2018-05-26T07:07:44.115Z,19.30
2018-05-26T07:10:11.583Z,19.30
2018-05-26T07:12:39.734Z,19.50
2018-05-26T07:15:07.920Z,19.60
2018-05-26T07:17:36.102Z,19.60
2018-05-26T07:20:03.606Z,19.60
2018-05-26T07:22:31.025Z,19.60
2018-05-26T07:24:58.449Z,19.70
2018-05-26T07:27:25.860Z,19.80
2018-05-26T07:29:53.276Z,19.80
2018-05-26T07:32:20.702Z,19.90
2018-05-26T07:34:48.132Z,20.00
2018-05-26T07:37:15.591Z,20.00
2018-05-26T07:39:43.058Z,20.20
2018-05-26T07:42:10.464Z,20.30
2018-05-26T07:44:37.891Z,20.50
2018-05-26T07:47:05.311Z,20.60
2018-05-26T07:49:32.726Z,20.70
2018-05-26T07:52:00.145Z,20.80
2018-05-26T07:54:27.561Z,20.90
2018-05-26T07:56:55.033Z,21.00
2018-05-26T07:59:22.448Z,21.00
2018-05-26T08:01:49.873Z,21.10
2018-05-26T08:04:17.465Z,21.20
2018-05-26T08:06:44.877Z,21.30
2018-05-26T08:09:13.084Z,21.40
2018-05-26T08:11:40.497Z,21.40
2018-05-26T08:14:07.930Z,21.50
2018-05-26T08:16:36.516Z,21.70
2018-05-26T08:19:03.988Z,21.70
2018-05-26T08:21:31.452Z,21.80
2018-05-26T08:23:58.864Z,21.90
2018-05-26T08:26:26.277Z,22.00
2018-05-26T08:28:54.461Z,22.00
2018-05-26T08:31:22.671Z,22.10
2018-05-26T08:33:50.895Z,22.20
2018-05-26T08:36:19.017Z,22.30
2018-05-26T08:38:47.200Z,22.40
2018-05-26T08:41:15.422Z,22.40
2018-05-26T08:43:42.816Z,22.40
2018-05-26T08:46:10.252Z,22.50
2018-05-26T08:48:38.404Z,22.60
2018-05-26T08:51:07.201Z,22.70
2018-05-26T08:53:36.212Z,22.80
2018-05-26T08:56:04.384Z,22.90
2018-05-26T08:58:31.788Z,22.90
2018-05-26T09:00:59.198Z,23.10
2018-05-26T09:03:26.635Z,23.20
2018-05-26T09:05:54.104Z,23.20
2018-05-26T09:08:21.510Z,23.30
2018-05-26T09:10:48.948Z,23.30
2018-05-26T09:13:16.360Z,23.40
2018-05-26T09:15:43.869Z,23.30
2018-05-26T09:18:11.336Z,23.40
2018-05-26T09:20:38.752Z,23.50
2018-05-26T09:23:07.668Z,23.70
2018-05-26T09:25:35.189Z,23.70
2018-05-26T09:28:02.609Z,23.80
2018-05-26T09:30:30.112Z,23.80
2018-05-26T09:32:57.536Z,23.90
2018-05-26T09:35:25.065Z,24.00
2018-05-26T09:37:52.532Z,24.10
2018-05-26T09:40:20.720Z,24.30
2018-05-26T09:42:48.187Z,24.20
2018-05-26T09:45:16.354Z,24.30
2018-05-26T09:47:44.549Z,24.40
2018-05-26T09:50:11.989Z,24.40
2018-05-26T09:52:39.516Z,24.50
2018-05-26T09:55:07.583Z,24.60
2018-05-26T09:57:35.022Z,24.60
2018-05-26T10:00:02.471Z,24.60
2018-05-26T10:02:29.920Z,24.60
2018-05-26T10:04:57.349Z,24.70
2018-05-26T10:07:24.834Z,24.70
2018-05-26T10:09:52.292Z,24.80
2018-05-26T10:12:19.726Z,24.90
2018-05-26T10:14:47.938Z,25.10
2018-05-26T10:17:15.423Z,25.10
2018-05-26T10:19:42.876Z,25.20
2018-05-26T10:22:10.329Z,25.20
2018-05-26T10:24:38.031Z,25.30
2018-05-26T10:27:05.447Z,25.30
2018-05-26T10:29:33.177Z,25.40
2018-05-26T10:32:00.748Z,25.40
2018-05-26T10:34:28.199Z,25.40
2018-05-26T10:36:59.152Z,25.40
2018-05-26T10:39:27.724Z,25.50
2018-05-26T10:41:55.336Z,25.40
2018-05-26T10:44:22.763Z,25.50
2018-05-26T10:46:50.282Z,25.60
2018-05-26T10:49:17.729Z,25.60
2018-05-26T10:51:45.145Z,25.60
2018-05-26T10:54:12.564Z,25.70
2018-05-26T10:56:39.989Z,25.70
2018-05-26T10:59:07.497Z,25.70
2018-05-26T11:01:34.978Z,25.80
2018-05-26T11:04:02.440Z,25.90
2018-05-26T11:09:25.143Z,26.10
2018-05-26T11:11:52.563Z,26.10
2018-05-26T11:14:19.977Z,26.20
2018-05-26T11:16:47.482Z,26.20
2018-05-26T11:19:14.892Z,26.20
2018-05-26T11:21:43.100Z,26.30
2018-05-26T11:24:10.555Z,26.30
2018-05-26T11:26:37.936Z,26.40
2018-05-26T11:29:05.348Z,26.50
2018-05-26T11:31:32.777Z,26.50
2018-05-26T11:34:00.187Z,26.50
2018-05-26T11:36:27.796Z,26.60
2018-05-26T11:38:55.976Z,26.80
2018-05-26T11:41:24.162Z,27.00
2018-05-26T11:43:52.775Z,27.10
2018-05-26T11:46:20.282Z,27.10
2018-05-26T11:48:47.756Z,27.20
2018-05-26T11:51:15.183Z,27.30
2018-05-26T11:53:42.604Z,27.30
2018-05-26T11:56:10.018Z,27.30
2018-05-26T11:58:37.435Z,27.50
2018-05-26T12:01:04.899Z,27.50
2018-05-26T12:03:32.329Z,27.60
2018-05-26T12:05:59.907Z,27.60
2018-05-26T12:08:27.345Z,27.80
2018-05-26T12:10:55.551Z,28.50
2018-05-26T12:13:23.741Z,28.80
2018-05-26T12:15:51.902Z,29.00
2018-05-26T12:18:20.125Z,29.60
2018-05-26T12:20:48.212Z,29.50
2018-05-26T12:23:15.632Z,30.00
2018-05-26T12:25:43.038Z,30.60
2018-05-26T12:28:10.453Z,31.20
2018-05-26T12:30:37.860Z,31.60
2018-05-26T12:33:05.335Z,31.60
2018-05-26T12:35:33.488Z,31.70
2018-05-26T12:38:01.664Z,31.20
2018-05-26T12:40:29.068Z,31.20
2018-05-26T12:42:56.489Z,31.10
2018-05-26T12:45:23.944Z,31.40
2018-05-26T12:47:51.320Z,32.00
2018-05-26T12:50:18.752Z,33.20
2018-05-26T12:52:46.179Z,33.90
2018-05-26T12:55:13.580Z,35.20
2018-05-26T12:57:41.005Z,36.60
2018-05-26T13:00:08.414Z,37.20
2018-05-26T13:02:35.816Z,36.60
2018-05-26T13:05:03.244Z,35.80
2018-05-26T13:07:30.656Z,35.10
2018-05-26T13:09:58.072Z,33.90
2018-05-26T13:12:26.313Z,36.20
2018-05-26T13:14:53.721Z,36.20
2018-05-26T13:17:21.232Z,38.00
2018-05-26T13:19:48.692Z,39.40
2018-05-26T13:22:16.118Z,39.30
2018-05-26T13:24:44.287Z,41.70
2018-05-26T13:27:11.796Z,41.60
2018-05-26T13:29:39.323Z,42.60
2018-05-26T13:32:06.709Z,42.90
2018-05-26T13:34:34.929Z,40.90
2018-05-26T13:37:02.392Z,40.80
2018-05-26T13:39:29.872Z,38.90
2018-05-26T13:41:57.311Z,40.00
2018-05-26T13:44:24.721Z,41.00
2018-05-26T13:46:52.172Z,40.40
2018-05-26T13:49:19.609Z,41.20
2018-05-26T13:51:47.080Z,41.90
2018-05-26T13:54:15.310Z,37.20
2018-05-26T13:56:42.666Z,37.00
2018-05-26T13:59:10.083Z,33.90
2018-05-26T14:01:37.489Z,31.60
2018-05-26T14:04:04.917Z,30.30
2018-05-26T14:06:32.443Z,29.80
2018-05-26T14:09:00.629Z,29.00
2018-05-26T14:11:28.039Z,29.00
2018-05-26T14:13:55.473Z,29.00
2018-05-26T14:16:22.886Z,29.00
2018-05-26T14:18:50.326Z,29.10
2018-05-26T14:21:17.765Z,30.70
2018-05-26T14:23:45.193Z,32.70
2018-05-26T14:26:12.596Z,34.20
2018-05-26T14:28:40.012Z,36.10
2018-05-26T14:31:07.426Z,37.60
2018-05-26T14:33:34.841Z,39.10
2018-05-26T14:36:02.245Z,39.60
2018-05-26T14:38:30.456Z,41.60
2018-05-26T14:40:57.871Z,41.60
2018-05-26T14:43:25.280Z,41.30
2018-05-26T14:45:53.452Z,41.40
2018-05-26T14:48:21.672Z,39.20
2018-05-26T14:50:49.152Z,39.20
2018-05-26T14:53:16.567Z,35.70
2018-05-26T14:55:43.972Z,33.90
2018-05-26T14:58:11.480Z,33.50
2018-05-26T15:00:38.870Z,32.50
2018-05-26T15:03:06.289Z,31.80
2018-05-26T15:05:33.699Z,31.30
2018-05-26T15:08:01.114Z,31.00
2018-05-26T15:10:28.560Z,30.80
2018-05-26T15:12:56.831Z,30.10
2018-05-26T15:15:24.248Z,30.10
2018-05-26T15:17:51.646Z,29.90
2018-05-26T15:20:19.081Z,29.70
2018-05-26T15:22:46.566Z,29.60
2018-05-26T15:25:13.972Z,29.80
2018-05-26T15:27:42.192Z,29.60
2018-05-26T15:30:09.599Z,29.60
2018-05-26T15:32:37.004Z,29.30
2018-05-26T15:35:05.218Z,28.70
2018-05-26T15:37:32.708Z,28.60
2018-05-26T15:40:00.164Z,28.60
2018-05-26T15:42:28.372Z,28.40
2018-05-26T15:44:55.782Z,28.40
2018-05-26T15:47:23.191Z,28.50
2018-05-26T15:49:50.662Z,28.60
2018-05-26T15:52:18.105Z,28.50
2018-05-26T15:54:46.279Z,28.10
2018-05-26T15:57:14.180Z,28.10
2018-05-26T15:59:41.593Z,27.90
2018-05-26T16:02:09.000Z,27.70
2018-05-26T16:04:37.197Z,27.60
2018-05-26T16:07:04.774Z,27.60
2018-05-26T16:09:32.189Z,27.50
2018-05-26T16:11:59.601Z,27.50
2018-05-26T16:14:27.773Z,27.50
2018-05-26T16:16:55.952Z,28.00
2018-05-26T16:19:24.161Z,28.10
2018-05-26T16:21:51.582Z,28.10
2018-05-26T16:24:19.015Z,28.10
2018-05-26T16:26:46.424Z,28.10
2018-05-26T16:29:14.754Z,28.20
2018-05-26T16:31:42.164Z,28.30
2018-05-26T16:34:09.581Z,28.10
2018-05-26T16:36:37.761Z,27.70
2018-05-26T16:39:05.944Z,27.50
2018-05-26T16:41:34.157Z,27.40
2018-05-26T16:44:01.564Z,27.40
2018-05-26T16:46:28.985Z,27.30
2018-05-26T16:48:56.396Z,27.20
2018-05-26T16:51:23.855Z,27.20
2018-05-26T16:53:51.301Z,27.10
2018-05-26T16:56:18.782Z,27.00
2018-05-26T16:58:46.236Z,26.90
2018-05-26T17:01:15.295Z,27.00
2018-05-26T17:03:42.813Z,26.90
2018-05-26T17:06:10.988Z,27.10
2018-05-26T17:08:38.468Z,27.10
2018-05-26T17:11:05.936Z,27.10
2018-05-26T17:13:33.359Z,27.10
2018-05-26T17:16:00.761Z,27.20
2018-05-26T17:18:28.246Z,27.30
2018-05-26T17:20:56.435Z,27.90
2018-05-26T17:23:23.858Z,27.90
2018-05-26T17:25:51.284Z,28.10
2018-05-26T17:28:18.743Z,28.30
2018-05-26T17:30:46.455Z,28.50
2018-05-26T17:33:13.905Z,28.70
2018-05-26T17:35:41.305Z,28.80
2018-05-26T17:38:09.484Z,29.30
2018-05-26T17:40:36.997Z,29.20
2018-05-26T17:43:04.463Z,29.30
2018-05-26T17:45:31.877Z,29.50
2018-05-26T17:47:59.285Z,29.40
2018-05-26T17:50:27.460Z,28.50
2018-05-26T17:52:55.636Z,28.10
2018-05-26T17:55:23.151Z,28.00
2018-05-26T17:57:50.630Z,27.80
2018-05-26T18:00:18.046Z,27.40
2018-05-26T18:02:47.069Z,27.20
2018-05-26T18:05:16.186Z,27.10
2018-05-26T18:07:43.661Z,27.00
2018-05-26T18:10:11.076Z,27.00
2018-05-26T18:12:38.488Z,26.80
2018-05-26T18:15:06.001Z,26.70
2018-05-26T18:17:33.382Z,26.70
2018-05-26T18:20:00.796Z,26.60
2018-05-26T18:22:28.277Z,26.50
2018-05-26T18:24:56.420Z,26.40
2018-05-26T18:27:23.849Z,26.40
2018-05-26T18:29:51.308Z,26.40
2018-05-26T18:32:18.770Z,26.50
2018-05-26T18:34:47.601Z,26.70
2018-05-26T18:37:15.025Z,26.70
2018-05-26T18:39:42.501Z,26.70
2018-05-26T18:42:09.910Z,26.60
2018-05-26T18:44:37.347Z,26.50
2018-05-26T18:47:04.809Z,26.40
2018-05-26T18:49:32.220Z,26.30
2018-05-26T18:51:59.627Z,26.30
2018-05-26T18:54:27.808Z,26.10
2018-05-26T18:56:55.984Z,26.00
2018-05-26T18:59:24.204Z,26.00
2018-05-26T19:01:51.753Z,26.00
2018-05-26T19:04:19.241Z,25.90
2018-05-26T19:06:47.854Z,25.70
2018-05-26T19:09:15.261Z,25.60
2018-05-26T19:11:42.670Z,25.60
2018-05-26T19:14:10.089Z,25.40
2018-05-26T19:16:37.494Z,25.30
2018-05-26T19:19:05.672Z,25.00
2018-05-26T19:21:33.851Z,24.90
2018-05-26T19:24:02.063Z,24.80
2018-05-26T19:26:29.473Z,24.80
2018-05-26T19:28:56.907Z,24.70
2018-05-26T19:31:24.307Z,24.60
2018-05-26T19:33:51.749Z,24.60
2018-05-26T19:36:19.184Z,24.50
2018-05-26T19:38:48.303Z,24.30
2018-05-26T19:41:15.734Z,24.30
2018-05-26T19:43:43.137Z,24.30
2018-05-26T19:46:10.624Z,24.20
2018-05-26T19:48:38.028Z,24.20
2018-05-26T19:51:05.444Z,24.20
2018-05-26T19:53:32.924Z,24.20
2018-05-26T19:56:00.336Z,24.10
2018-05-26T19:58:27.767Z,24.00
2018-05-26T20:00:55.945Z,23.90
2018-05-26T20:03:23.357Z,23.90
2018-05-26T20:05:50.794Z,23.90
2018-05-26T20:08:18.216Z,23.80
2018-05-26T20:10:45.626Z,23.80
2018-05-26T20:13:13.084Z,23.70
2018-05-26T20:15:40.509Z,23.60
2018-05-26T20:18:07.912Z,23.60
2018-05-26T20:20:35.351Z,23.50
2018-05-26T20:23:02.828Z,23.50
2018-05-26T20:25:30.241Z,23.40
2018-05-26T20:27:57.688Z,23.40
2018-05-26T20:30:25.904Z,23.20
2018-05-26T20:32:53.473Z,23.20
2018-05-26T20:35:20.971Z,23.20
2018-05-26T20:37:48.590Z,23.10
2018-05-26T20:40:16.785Z,23.10
2018-05-26T20:42:44.370Z,23.00
2018-05-26T20:45:11.830Z,23.00
2018-05-26T20:47:39.232Z,23.00
2018-05-26T20:50:06.685Z,22.90
2018-05-26T20:52:34.095Z,22.90
2018-05-26T20:55:01.541Z,22.80
2018-05-26T20:57:29.067Z,22.90
2018-05-26T20:59:57.328Z,22.70
2018-05-26T21:02:24.715Z,22.70
2018-05-26T21:04:52.910Z,22.60
2018-05-26T21:07:20.324Z,22.60
2018-05-26T21:09:48.660Z,22.50
2018-05-26T21:12:16.141Z,22.50
2018-05-26T21:14:43.540Z,22.50
2018-05-26T21:17:10.992Z,22.50
2018-05-26T21:19:38.414Z,22.40
2018-05-26T21:22:05.838Z,22.40
2018-05-26T21:24:33.234Z,22.40
2018-05-26T21:27:00.636Z,22.30
2018-05-26T21:29:28.054Z,22.30
2018-05-26T21:31:55.470Z,22.20
2018-05-26T21:34:23.685Z,22.20
2018-05-26T21:36:51.197Z,22.10
2018-05-26T21:39:19.038Z,22.10
2018-05-26T21:41:46.606Z,22.10
2018-05-26T21:44:14.008Z,22.00
2018-05-26T21:46:41.464Z,22.00
2018-05-26T21:49:08.880Z,22.00
2018-05-26T21:51:36.324Z,21.90
2018-05-26T21:54:03.721Z,21.90
2018-05-26T21:56:31.155Z,21.80
2018-05-26T21:58:58.582Z,21.80
2018-05-26T22:01:26.014Z,21.70
2018-05-26T22:03:54.194Z,21.60
2018-05-26T22:06:22.608Z,21.50
2018-05-26T22:08:50.016Z,21.50
2018-05-26T22:11:17.479Z,21.50
2018-05-26T22:13:44.897Z,21.50
2018-05-26T22:16:13.098Z,21.40
2018-05-26T22:18:41.252Z,21.40
2018-05-26T22:21:09.429Z,21.30
2018-05-26T22:23:36.865Z,21.30
2018-05-26T22:26:04.309Z,21.30
2018-05-26T22:28:32.046Z,21.30
2018-05-26T22:30:59.549Z,21.30
2018-05-26T22:33:26.977Z,21.30
2018-05-26T22:35:54.419Z,21.30
2018-05-26T22:38:21.857Z,21.30
2018-05-26T22:40:50.634Z,21.40
2018-05-26T22:43:18.360Z,21.40
2018-05-26T22:45:45.775Z,21.30
2018-05-26T22:48:13.984Z,21.20
2018-05-26T22:50:41.385Z,21.10
2018-05-26T22:53:08.810Z,21.10
2018-05-26T22:55:37.007Z,21.00
2018-05-26T22:58:04.482Z,21.00
2018-05-26T23:00:32.640Z,20.90
2018-05-26T23:03:00.844Z,20.80
2018-05-26T23:05:28.313Z,20.80
2018-05-26T23:07:55.789Z,20.90
2018-05-26T23:10:23.212Z,20.80
2018-05-26T23:12:50.616Z,20.80
2018-05-26T23:15:18.199Z,20.70
2018-05-26T23:17:46.361Z,20.60
2018-05-26T23:20:14.545Z,20.60
2018-05-26T23:22:42.728Z,20.50
2018-05-26T23:25:10.909Z,20.50
2018-05-26T23:27:39.082Z,20.50
2018-05-26T23:30:06.494Z,20.50
2018-05-26T23:32:33.913Z,20.50
2018-05-26T23:35:02.395Z,20.60
2018-05-26T23:37:29.821Z,20.60
2018-05-26T23:39:57.232Z,20.70
2018-05-26T23:42:24.690Z,20.60
2018-05-26T23:44:52.064Z,20.50
2018-05-26T23:47:19.484Z,20.40
2018-05-26T23:49:46.902Z,20.40
2018-05-26T23:52:14.328Z,20.40
2018-05-26T23:54:41.742Z,20.20
2018-05-26T23:57:09.164Z,20.00
2018-05-26T23:59:36.642Z,19.90
